Black Butte, Oregon
Current Conditions -  °F | °C
As of 10:56 AM on Friday 31 Oct 2014 (Local Time) from KRDM Reporting Station
Overcast Overcast  
Wind Chill: 42°   Ceiling: 7000
Heat Index: 45°   Visibility: 10mi
Dew Point: 41°   Wind: 6mph
Humidity: 86%   Direction: 110°ESE
Pressure: 29.82"   Gusts: NA
Location:  44.3095°N, 121.588°W
Report Text: KRDM 311756Z 11005KT 10SM OVC070 07/05 A2982 RMK AO2 SLP097 60008 T00720050 10083 20067 51024
Loading
Personal Weather Stations






























Interactive Weather Map
Tropical Storm Tracking
New forecast layout! Learn more

10-Day Weather Forecast

Advertisements
Track Severe Weather on mobile